Time;durP1;ratioP1;P1;durP2;ratioP2;P2;SDS_P1;SDS_P2;PMS_P1;PMS_P2;Temp;Humidity;BMP_temperature;BMP_pressure;BME280_temperature;BME280_humidity;BME280_pressure;Samples;Min_cycle;Max_cycle;Signal;HPM_P1;HPM_P2
2020/12/31 00:02:22;;;;;;;61.58;22.95;;;;;;;-1.79;67.55;100291.09;5113161;28;20051;-60
2020/12/31 00:04:48;;;;;;;51.10;18.40;;;;;;;-1.96;67.03;100263.47;5094741;28;20495;-60
2020/12/31 00:07:13;;;;;;;60.83;21.65;;;;;;;-1.93;67.28;100284.41;5095251;28;20042;-62
2020/12/31 00:09:39;;;;;;;56.03;20.20;;;;;;;-1.86;67.87;100292.16;5094423;28;20031;-60
2020/12/31 00:12:06;;;;;;;53.55;20.92;;;;;;;-2.20;67.53;100226.38;5112874;28;20552;-60
2020/12/31 00:14:31;;;;;;;50.58;19.45;;;;;;;-1.86;67.65;100287.75;5112831;28;20394;-61
2020/12/31 00:16:57;;;;;;;56.83;21.27;;;;;;;-1.92;68.38;100267.78;5112653;28;20046;-61
2020/12/31 00:19:22;;;;;;;51.60;20.60;;;;;;;-1.77;67.38;100274.44;5111647;28;20494;-59
2020/12/31 00:21:48;;;;;;;55.42;22.33;;;;;;;-2.00;68.06;100243.44;5113544;28;20120;-60
2020/12/31 00:24:13;;;;;;;60.58;21.30;;;;;;;-1.81;67.31;100282.41;5112977;28;20045;-60
2020/12/31 00:26:39;;;;;;;65.13;23.45;;;;;;;-1.86;67.86;100271.16;5112902;28;20040;-60
2020/12/31 00:29:04;;;;;;;65.07;20.35;;;;;;;-1.77;67.54;100255.19;5094441;28;20482;-61
2020/12/31 00:31:30;;;;;;;55.85;21.70;;;;;;;-1.75;67.70;100262.13;5094424;28;20039;-61
2020/12/31 00:33:56;;;;;;;61.20;22.75;;;;;;;-1.76;68.28;100267.41;5112662;28;20084;-59
2020/12/31 00:36:21;;;;;;;56.88;22.63;;;;;;;-1.74;67.63;100271.75;5112691;28;20028;-59
2020/12/31 00:38:51;;;;;;;56.85;22.13;;;;;;;-1.67;67.99;100271.59;5113513;27;21014;-60
2020/12/31 00:41:20;;;;;;;54.08;18.77;;;;;;;-2.13;67.65;100177.25;5130701;27;20088;-59
2020/12/31 00:43:46;;;;;;;59.38;21.88;;;;;;;-1.72;67.79;100258.56;5130261;27;20035;-58
2020/12/31 00:46:12;;;;;;;65.05;22.25;;;;;;;-1.89;67.66;100258.94;5132896;27;20055;-58
2020/12/31 00:48:38;;;;;;;55.97;20.23;;;;;;;-1.69;67.62;100276.88;5133281;27;20065;-61
2020/12/31 00:51:03;;;;;;;64.00;22.35;;;;;;;-1.87;67.90;100246.66;5132970;27;20466;-58
2020/12/31 00:53:29;;;;;;;61.53;22.73;;;;;;;-1.74;68.03;100263.88;5132674;27;20477;-60
2020/12/31 00:55:54;;;;;;;61.90;23.40;;;;;;;-1.62;67.39;100267.09;5133044;27;20035;-61
2020/12/31 00:58:20;;;;;;;60.47;21.73;;;;;;;-1.60;67.58;100253.03;5133190;27;20409;-60
2020/12/31 01:00:45;;;;;;;59.53;22.73;;;;;;;-1.66;67.98;100258.44;5132285;27;20156;-60
2020/12/31 01:03:11;;;;;;;60.30;21.70;;;;;;;-1.61;67.84;100266.19;5132496;27;20062;-58
2020/12/31 01:05:36;;;;;;;58.65;20.17;;;;;;;-1.55;67.32;100270.44;5131147;27;20383;-59
2020/12/31 01:08:02;;;;;;;58.50;22.75;;;;;;;-1.60;67.76;100260.03;5130560;27;20409;-57
2020/12/31 01:10:28;;;;;;;55.55;19.90;;;;;;;-1.63;67.64;100278.50;5130578;27;20042;-60
2020/12/31 01:12:54;;;;;;;63.85;22.52;;;;;;;-1.62;67.25;100243.47;5112101;27;20042;-61
2020/12/31 01:15:19;;;;;;;66.00;23.60;;;;;;;-1.66;67.81;100253.19;5112170;27;20813;-59
2020/12/31 01:17:45;;;;;;;71.93;25.58;;;;;;;-1.60;67.83;100244.28;5130666;27;20059;-60
2020/12/31 01:20:10;;;;;;;63.85;22.83;;;;;;;-1.59;67.75;100264.38;5130690;27;20383;-61
2020/12/31 01:22:36;;;;;;;57.03;19.25;;;;;;;-1.55;67.29;100245.06;5113279;27;20037;-60
2020/12/31 01:25:03;;;;;;;66.43;23.38;;;;;;;-1.53;67.59;100243.25;5128363;27;20142;-60
2020/12/31 01:27:28;;;;;;;58.20;20.05;;;;;;;-1.46;67.24;100254.47;5111880;28;20475;-59
2020/12/31 01:29:54;;;;;;;68.00;24.45;;;;;;;-1.59;67.87;100238.13;5111637;28;20177;-60
2020/12/31 01:32:24;;;;;;;56.33;20.13;;;;;;;-1.54;67.70;100246.78;5111747;28;20048;-60
2020/12/31 01:34:50;;;;;;;54.75;18.00;;;;;;;-2.05;67.63;100150.84;5111592;27;20052;-60
2020/12/31 01:37:17;;;;;;;62.13;21.90;;;;;;;-1.98;67.32;100146.31;5111569;28;20036;-60
2020/12/31 01:39:44;;;;;;;54.20;19.52;;;;;;;-1.45;67.49;100215.03;5111473;28;20475;-61
2020/12/31 01:42:10;;;;;;;58.83;19.40;;;;;;;-1.61;67.69;100183.03;5111153;28;20039;-61
2020/12/31 01:44:36;;;;;;;69.70;24.08;;;;;;;-1.52;67.61;100188.97;5111083;28;20035;-60
2020/12/31 01:47:01;;;;;;;60.38;19.38;;;;;;;-1.47;67.70;100181.81;5110905;28;20394;-61
2020/12/31 01:49:29;;;;;;;65.38;24.13;;;;;;;-1.43;67.51;100193.13;5111112;28;20043;-60
2020/12/31 01:51:57;;;;;;;68.07;24.50;;;;;;;-1.54;67.96;100189.03;5111458;28;20447;-60
2020/12/31 01:54:24;;;;;;;63.00;22.77;;;;;;;-1.44;67.41;100189.66;5111398;28;20036;-55
2020/12/31 01:56:49;;;;;;;55.38;21.15;;;;;;;-1.92;67.56;100110.31;5111026;28;20142;-56
2020/12/31 01:59:19;;;;;;;40.28;15.13;;;;;;;-1.38;67.30;100209.63;5110488;28;20503;-59
2020/12/31 02:01:44;;;;;;;55.38;20.90;;;;;;;-1.51;67.74;100193.31;5110958;28;20142;-58
2020/12/31 02:04:10;;;;;;;49.88;18.33;;;;;;;-1.46;67.48;100201.94;5110906;28;20578;-58
2020/12/31 02:06:37;;;;;;;66.38;23.05;;;;;;;-1.56;67.91;100203.06;5110701;28;20023;-59
2020/12/31 02:09:04;;;;;;;57.70;19.00;;;;;;;-1.55;67.63;100210.03;5110613;28;20514;-60
2020/12/31 02:11:29;;;;;;;57.20;20.75;;;;;;;-1.66;68.18;100179.69;5111204;28;20523;-57
2020/12/31 02:13:55;;;;;;;47.45;17.80;;;;;;;-1.45;67.17;100201.91;5110919;28;20118;-60
2020/12/31 02:16:23;;;;;;;61.20;21.13;;;;;;;-1.50;68.08;100189.78;5110417;28;20088;-60
2020/12/31 02:19:07;;;;;;;56.47;21.73;;;;;;;-1.41;68.31;100183.44;5092405;28;20031;-59
2020/12/31 02:21:37;;;;;;;49.42;18.67;;;;;;;-1.36;67.73;100182.44;5110711;28;20036;-59
2020/12/31 02:24:06;;;;;;;81.00;19.33;;;;;;;-1.32;67.21;100189.31;5110432;28;20051;-59
2020/12/31 02:26:33;;;;;;;56.72;21.05;;;;;;;-1.42;67.31;100187.84;5110409;28;20024;-59
2020/12/31 02:29:00;;;;;;;57.50;20.83;;;;;;;-1.45;68.11;100204.53;5110326;28;20032;-60
2020/12/31 02:31:27;;;;;;;51.20;19.65;;;;;;;-1.44;67.85;100184.41;5092021;28;20348;-58
2020/12/31 02:33:54;;;;;;;44.55;15.68;;;;;;;-1.39;67.72;100182.50;5110979;28;20039;-58
2020/12/31 02:36:22;;;;;;;58.15;21.50;;;;;;;-1.43;67.65;100185.25;5110575;28;20043;-60
2020/12/31 02:38:47;;;;;;;49.42;17.10;;;;;;;-1.63;67.64;100137.59;5110130;28;20038;-59
2020/12/31 02:41:14;;;;;;;61.70;22.58;;;;;;;-1.53;67.79;100179.34;5110172;28;20031;-59
2020/12/31 02:43:40;;;;;;;57.13;20.20;;;;;;;-1.67;67.64;100156.06;5110252;28;20062;-60
2020/12/31 02:46:09;;;;;;;61.17;22.27;;;;;;;-2.32;68.18;100045.66;5110294;28;20034;-60
2020/12/31 02:48:34;;;;;;;56.05;21.33;;;;;;;-1.49;67.53;100194.13;5110150;28;20402;-60
2020/12/31 02:51:00;;;;;;;53.85;18.33;;;;;;;-1.46;67.77;100187.06;5110227;28;20032;-59
2020/12/31 02:53:26;;;;;;;40.35;15.10;;;;;;;-1.54;67.89;100170.63;5110413;28;20039;-59
2020/12/31 02:55:52;;;;;;;53.45;21.05;;;;;;;-1.42;67.62;100200.97;5110216;28;20446;-58
2020/12/31 02:58:17;;;;;;;53.25;20.92;;;;;;;-1.47;67.51;100173.94;5110143;28;20031;-60
2020/12/31 03:00:43;;;;;;;55.10;20.33;;;;;;;-1.46;68.34;100175.66;5110297;28;20036;-61
2020/12/31 03:03:08;;;;;;;55.95;21.77;;;;;;;-1.50;67.82;100181.91;5109300;28;20407;-60
2020/12/31 03:05:34;;;;;;;55.90;20.35;;;;;;;-1.44;68.08;100166.00;5110378;28;20114;-60
2020/12/31 03:07:59;;;;;;;55.42;19.23;;;;;;;-1.39;67.87;100174.63;5091941;28;20172;-59
2020/12/31 03:10:25;;;;;;;56.17;21.77;;;;;;;-1.40;68.10;100179.91;5091967;28;20123;-61
2020/12/31 03:12:50;;;;;;;54.42;21.60;;;;;;;-1.40;68.15;100193.91;5109811;28;20054;-60
2020/12/31 03:15:18;;;;;;;50.00;17.67;;;;;;;-1.67;67.89;100120.19;5109970;28;20042;-61
2020/12/31 03:17:44;;;;;;;56.83;21.63;;;;;;;-1.28;67.90;100174.34;5110003;28;20131;-61
2020/12/31 03:20:10;;;;;;;39.35;15.23;;;;;;;-1.25;67.58;100179.53;5109538;28;20115;-62
2020/12/31 03:22:35;;;;;;;51.30;19.90;;;;;;;-1.33;68.01;100177.09;5110040;28;20567;-60
2020/12/31 03:25:02;;;;;;;45.60;19.70;;;;;;;-1.47;68.26;100160.81;5109850;28;20508;-59
2020/12/31 03:27:28;;;;;;;44.53;16.30;;;;;;;-1.20;68.38;100195.19;5109962;28;20042;-60
2020/12/31 03:29:53;;;;;;;45.97;17.60;;;;;;;-1.32;68.21;100152.56;5109845;28;20032;-60
2020/12/31 03:32:19;;;;;;;41.22;15.10;;;;;;;-1.08;67.34;100170.34;5109953;28;20118;-60
2020/12/31 03:34:45;;;;;;;47.08;15.88;;;;;;;-1.13;67.81;100169.59;5109857;28;20035;-60
2020/12/31 03:37:11;;;;;;;50.67;19.92;;;;;;;-1.38;68.41;100139.59;5109932;28;20039;-56
2020/12/31 03:39:37;;;;;;;49.50;17.52;;;;;;;-1.97;67.82;100022.94;5109738;28;20443;-60
2020/12/31 03:42:03;;;;;;;40.80;14.85;;;;;;;-1.14;67.31;100131.06;5109640;28;20114;-59
2020/12/31 03:44:28;;;;;;;56.65;22.55;;;;;;;-1.66;67.89;100058.91;5110103;28;20137;-61
2020/12/31 03:46:54;;;;;;;50.53;19.33;;;;;;;-1.45;68.36;100096.84;5109811;28;20076;-60
2020/12/31 03:49:19;;;;;;;48.53;17.48;;;;;;;-1.21;68.40;100117.22;5109798;28;20031;-60
2020/12/31 03:51:45;;;;;;;52.28;18.75;;;;;;;-1.15;67.94;100122.34;5109957;28;20120;-61
2020/12/31 03:54:10;;;;;;;47.20;17.10;;;;;;;-1.10;67.60;100133.59;5093778;28;20038;-58
2020/12/31 03:56:36;;;;;;;54.67;20.77;;;;;;;-1.13;67.46;100130.16;5113237;28;20039;-61
2020/12/31 03:59:03;;;;;;;56.45;22.10;;;;;;;-1.17;67.93;100121.53;5095017;28;20118;-55
2020/12/31 04:01:30;;;;;;;53.47;19.92;;;;;;;-1.55;68.25;100057.75;5113397;28;20479;-59
2020/12/31 04:03:55;;;;;;;57.30;20.63;;;;;;;-1.62;68.17;100049.16;5112958;28;20083;-62
2020/12/31 04:06:21;;;;;;;52.55;18.27;;;;;;;-1.15;67.86;100117.09;5113332;28;20070;-61
2020/12/31 04:08:46;;;;;;;47.35;18.20;;;;;;;-1.33;67.85;100076.41;5094481;28;20487;-60
2020/12/31 04:11:12;;;;;;;44.65;16.23;;;;;;;-1.20;67.57;100087.47;5112885;28;20478;-59
2020/12/31 04:13:37;;;;;;;43.22;16.25;;;;;;;-1.09;67.55;100105.53;5112999;28;20027;-60
2020/12/31 04:16:03;;;;;;;46.35;17.90;;;;;;;-1.14;67.49;100105.69;5113205;28;20031;-60
2020/12/31 04:18:28;;;;;;;42.63;17.98;;;;;;;-1.11;67.54;100110.84;5113035;28;20046;-59
2020/12/31 04:20:53;;;;;;;30.73;11.80;;;;;;;-1.12;67.50;100101.22;5112696;28;20401;-59
2020/12/31 04:23:19;;;;;;;48.70;19.83;;;;;;;-1.26;67.29;100099.00;5112897;28;20036;-60
2020/12/31 04:25:44;;;;;;;31.48;11.18;;;;;;;-1.10;67.39;100116.94;5112817;28;20457;-60
2020/12/31 04:28:10;;;;;;;48.38;15.60;;;;;;;-0.97;66.67;100151.63;5094554;28;20517;-57
2020/12/31 04:30:35;;;;;;;41.08;18.17;;;;;;;-1.13;66.86;100140.69;5112506;28;20028;-58
2020/12/31 04:33:01;;;;;;;40.20;15.95;;;;;;;-1.16;67.29;100139.84;5112540;28;20039;-59
2020/12/31 04:35:26;;;;;;;40.70;16.00;;;;;;;-1.09;67.08;100147.56;5094392;28;20544;-58
2020/12/31 04:37:52;;;;;;;39.42;17.38;;;;;;;-1.59;67.11;100054.31;5112608;28;20455;-58
2020/12/31 04:40:17;;;;;;;42.03;17.42;;;;;;;-1.48;67.49;100085.56;5112708;27;20114;-61
2020/12/31 04:42:43;;;;;;;37.50;16.10;;;;;;;-1.04;67.69;100143.91;5112259;28;20040;-60
2020/12/31 04:45:10;;;;;;;33.38;15.27;;;;;;;-1.09;67.16;100116.03;5112746;28;20032;-59
2020/12/31 04:47:47;;;;;;;31.10;13.75;;;;;;;-0.93;67.32;100138.38;5112223;28;20471;-60
2020/12/31 04:50:14;;;;;;;31.40;14.00;;;;;;;-0.83;66.69;100138.13;5112581;28;20024;-61
2020/12/31 04:52:40;;;;;;;31.77;14.00;;;;;;;-0.78;67.07;100125.69;5111916;28;20062;-61
2020/12/31 04:55:05;;;;;;;35.63;15.50;;;;;;;-0.83;67.02;100111.84;5097051;27;20519;-58
2020/12/31 04:57:32;;;;;;;33.60;14.55;;;;;;;-0.66;66.27;100129.75;5133259;27;20034;-59
2020/12/31 04:59:58;;;;;;;30.92;13.45;;;;;;;-0.86;66.34;100099.63;5132860;27;20402;-62
2020/12/31 05:02:24;;;;;;;30.98;14.23;;;;;;;-0.75;66.51;100138.75;5132781;27;20059;-59
2020/12/31 05:04:51;;;;;;;28.42;12.57;;;;;;;-1.07;66.46;100078.31;5131801;27;20134;-57
2020/12/31 05:07:17;;;;;;;23.23;10.38;;;;;;;-0.68;65.88;100131.56;5132734;27;20039;-60
2020/12/31 05:09:43;;;;;;;25.90;11.20;;;;;;;-0.73;66.58;100123.78;5132368;27;20114;-61
2020/12/31 05:12:08;;;;;;;30.40;11.98;;;;;;;-0.75;66.40;100099.31;5132327;27;20031;-60
2020/12/31 05:14:37;;;;;;;29.95;13.75;;;;;;;-0.86;66.65;100112.78;5132685;27;20039;-60
2020/12/31 05:17:14;;;;;;;36.40;14.48;;;;;;;-0.78;66.94;100126.56;5132907;27;20050;-60
2020/12/31 05:19:40;;;;;;;32.30;14.05;;;;;;;-0.83;66.95;100115.31;5132441;27;20541;-60
2020/12/31 05:22:20;;;;;;;29.30;12.43;;;;;;;-0.60;66.42;100117.28;5132599;27;20046;-59
2020/12/31 05:24:50;;;;;;;31.75;13.90;;;;;;;-0.59;65.91;100126.03;5132073;27;20137;-61
2020/12/31 05:27:16;;;;;;;35.83;15.00;;;;;;;-0.64;66.70;100117.41;5132148;27;20101;-60
2020/12/31 05:29:53;;;;;;;34.70;14.15;;;;;;;-0.64;66.71;100104.25;5113604;27;20490;-61
2020/12/31 05:32:23;;;;;;;35.08;14.45;;;;;;;-0.56;66.08;100109.31;5132096;27;20406;-61
2020/12/31 05:34:49;;;;;;;33.55;14.93;;;;;;;-0.65;66.29;100090.22;5131989;27;20121;-61
2020/12/31 05:37:16;;;;;;;35.38;14.13;;;;;;;-0.51;66.76;100104.75;5132224;27;20031;-60
2020/12/31 05:40:03;;;;;;;32.13;14.77;;;;;;;-0.45;66.17;100094.91;5131808;27;20027;-60
2020/12/31 05:42:31;;;;;;;34.75;14.55;;;;;;;-0.94;66.00;100052.53;5113545;27;20039;-62
2020/12/31 05:45:01;;;;;;;33.28;13.43;;;;;;;-0.46;66.28;100135.28;5131635;27;20520;-60
2020/12/31 05:47:27;;;;;;;31.58;13.65;;;;;;;-0.87;65.76;100050.59;5132167;27;20056;-61
2020/12/31 05:49:53;;;;;;;36.85;14.27;;;;;;;-0.61;66.31;100110.28;5131649;27;20062;-61
2020/12/31 05:52:37;;;;;;;36.30;14.50;;;;;;;-0.50;66.39;100128.34;5131265;27;20031;-61
2020/12/31 05:55:06;;;;;;;34.03;14.57;;;;;;;-0.65;66.22;100124.41;5113201;27;20023;-61
2020/12/31 05:57:51;;;;;;;40.05;15.88;;;;;;;-0.50;66.62;100130.16;5131423;27;20477;-61
2020/12/31 06:00:36;;;;;;;34.72;14.80;;;;;;;-0.49;66.98;100140.59;5113029;27;20405;-61
2020/12/31 06:03:01;;;;;;;36.78;15.75;;;;;;;-0.49;66.81;100137.13;5131524;27;20057;-61
2020/12/31 06:05:28;;;;;;;34.33;14.75;;;;;;;-0.39;66.65;100132.47;5131343;27;20046;-61
2020/12/31 06:07:56;;;;;;;35.33;14.52;;;;;;;-0.44;66.89;100117.69;5131424;27;20050;-60
2020/12/31 06:10:23;;;;;;;33.42;13.65;;;;;;;-0.25;66.03;100129.41;5131447;27;20037;-60
2020/12/31 06:12:50;;;;;;;35.03;14.88;;;;;;;-1.21;66.52;99963.09;5131278;27;20217;-60
2020/12/31 06:15:18;;;;;;;38.90;15.38;;;;;;;-0.20;66.62;100111.69;5131242;27;20027;-61
2020/12/31 06:17:46;;;;;;;35.25;14.70;;;;;;;-0.21;66.21;100118.75;5130773;27;20077;-61
2020/12/31 06:20:16;;;;;;;29.23;12.88;;;;;;;-0.19;66.37;100114.28;5131177;27;20091;-61
2020/12/31 06:23:15;;;;;;;40.97;17.30;;;;;;;-0.18;66.66;100112.50;5130789;27;20058;-61
2020/12/31 06:25:48;;;;;;;35.50;16.40;;;;;;;-0.32;66.42;100092.75;5111564;27;20039;-60
2020/12/31 06:28:16;;;;;;;37.00;15.57;;;;;;;-0.14;66.48;100111.50;5131316;27;20059;-61
2020/12/31 06:30:52;;;;;;;39.60;17.27;;;;;;;-0.19;66.80;100109.03;5131126;27;20027;-62
2020/12/31 06:33:44;;;;;;;38.08;16.65;;;;;;;-0.09;66.85;100103.47;5131146;27;20077;-60
2020/12/31 06:36:12;;;;;;;41.75;16.98;;;;;;;-0.13;66.53;100102.69;5131257;27;20110;-69
2020/12/31 06:38:37;;;;;;;39.47;16.30;;;;;;;-0.07;67.06;100101.63;5131619;27;20067;-68
2020/12/31 06:41:05;;;;;;;43.05;17.65;;;;;;;-0.08;66.72;100092.00;5130676;27;20066;-69
2020/12/31 06:43:38;;;;;;;41.45;17.45;;;;;;;-0.04;66.88;100101.53;5130813;27;20047;-69
2020/12/31 06:46:18;;;;;;;36.03;15.82;;;;;;;0.07;67.14;100093.28;5131062;27;20062;-71
2020/12/31 06:48:49;;;;;;;38.25;17.40;;;;;;;0.07;66.84;100103.81;5130908;27;20486;-68
2020/12/31 06:51:22;;;;;;;33.78;14.07;;;;;;;0.16;66.54;100116.69;5112625;28;20048;-67
2020/12/31 06:53:51;;;;;;;47.80;18.35;;;;;;;0.09;66.31;100092.34;5130823;28;20035;-67
2020/12/31 06:56:39;;;;;;;44.45;18.27;;;;;;;0.18;66.84;100090.28;5130979;28;20026;-68
2020/12/31 06:59:25;;;;;;;43.63;19.00;;;;;;;0.28;66.50;100104.91;5130292;28;20033;-70
2020/12/31 07:01:52;;;;;;;40.30;17.63;;;;;;;0.09;66.26;100071.28;5130845;28;20070;-68
2020/12/31 07:04:34;;;;;;;51.15;18.90;;;;;;;0.11;67.26;100090.50;5130343;28;20134;-68
2020/12/31 07:07:01;;;;;;;46.00;19.15;;;;;;;0.23;66.55;100080.47;5130354;28;20080;-68
2020/12/31 07:09:36;;;;;;;47.33;17.73;;;;;;;0.27;66.45;100075.06;5130250;28;20031;-67
2020/12/31 07:12:04;;;;;;;46.87;19.63;;;;;;;0.25;66.52;100079.50;5130506;28;20892;-66
2020/12/31 07:14:31;;;;;;;44.95;17.80;;;;;;;0.22;66.76;100071.72;5112000;28;20064;-70
2020/12/31 07:17:07;;;;;;;45.63;15.93;;;;;;;0.26;66.74;100072.50;5130283;28;20038;-69
2020/12/31 07:19:35;;;;;;;47.72;18.58;;;;;;;0.24;66.48;100075.16;5130327;28;20046;-68
2020/12/31 07:22:22;;;;;;;50.60;20.02;;;;;;;0.17;67.07;100075.41;5130588;28;20039;-69
2020/12/31 07:24:57;;;;;;;54.78;20.67;;;;;;;-0.23;67.17;100019.69;5130308;28;20067;-68
2020/12/31 07:27:24;;;;;;;52.28;19.42;;;;;;;0.19;66.76;100097.28;5130737;27;20066;-69
2020/12/31 07:29:58;;;;;;;48.00;17.73;;;;;;;0.23;66.68;100104.16;5134240;27;20506;-67
2020/12/31 07:32:48;;;;;;;44.58;19.50;;;;;;;0.27;66.55;100090.84;5134349;27;20031;-67
2020/12/31 07:35:32;;;;;;;47.85;19.70;;;;;;;0.24;66.76;100085.69;5115425;27;20119;-67
2020/12/31 07:38:07;;;;;;;44.78;19.35;;;;;;;0.30;66.50;100079.38;5133998;27;20663;-68
2020/12/31 07:40:54;;;;;;;51.33;21.60;;;;;;;0.14;66.72;100053.53;5133714;27;20027;-69
2020/12/31 07:43:25;;;;;;;46.60;18.92;;;;;;;0.31;66.57;100074.94;5118337;27;20495;-67
2020/12/31 07:46:01;;;;;;;43.63;19.25;;;;;;;0.38;66.45;100087.84;5133322;27;20035;-66
2020/12/31 07:48:27;;;;;;;51.00;19.38;;;;;;;0.34;66.25;100066.94;5134578;27;20042;-68
2020/12/31 07:51:01;;;;;;;39.83;14.88;;;;;;;0.39;66.40;100057.97;5133872;27;20176;-69
2020/12/31 07:53:29;;;;;;;45.03;19.27;;;;;;;0.38;66.32;100061.50;5133946;27;20595;-67
2020/12/31 07:55:56;;;;;;;48.40;19.63;;;;;;;0.28;66.38;100032.00;5115363;27;20083;-66
2020/12/31 07:58:23;;;;;;;41.63;16.35;;;;;;;0.45;66.40;100045.50;5133864;27;20047;-68
2020/12/31 08:01:03;;;;;;;46.72;19.92;;;;;;;0.38;67.10;100056.25;5133429;27;20035;-67
2020/12/31 08:03:29;;;;;;;42.05;18.50;;;;;;;0.42;66.91;100059.66;5134233;27;20050;-69
2020/12/31 08:06:02;;;;;;;50.95;20.05;;;;;;;0.45;66.57;100042.84;5134103;27;20042;-67
2020/12/31 08:08:28;;;;;;;47.03;20.73;;;;;;;0.48;66.75;100021.66;5133523;27;20042;-69
2020/12/31 08:10:54;;;;;;;47.05;19.67;;;;;;;0.52;66.57;100031.22;5133461;27;20027;-67
2020/12/31 08:13:20;;;;;;;50.25;19.95;;;;;;;0.50;66.36;100043.56;5132071;27;20038;-66
2020/12/31 08:15:53;;;;;;;52.53;19.90;;;;;;;0.16;66.91;99961.34;5132589;27;20079;-69
2020/12/31 08:18:20;;;;;;;50.05;20.10;;;;;;;0.66;66.42;100038.63;5129510;27;20370;-62
2020/12/31 08:20:48;;;;;;;42.75;17.25;;;;;;;0.75;66.26;100027.72;5132506;27;20034;-70
2020/12/31 08:23:17;;;;;;;44.90;18.85;;;;;;;0.62;66.56;100032.59;5113757;27;20385;-68
2020/12/31 08:25:45;;;;;;;43.10;19.77;;;;;;;0.76;66.73;100047.88;5130655;27;20059;-70
2020/12/31 08:28:12;;;;;;;43.10;18.50;;;;;;;0.67;66.25;100025.38;5129913;27;20038;-63
2020/12/31 08:30:38;;;;;;;42.20;18.73;;;;;;;0.95;66.52;100061.25;5132466;27;20023;-68
2020/12/31 08:33:07;;;;;;;48.83;19.45;;;;;;;0.60;66.39;99984.34;5131703;27;20099;-64
2020/12/31 08:35:39;;;;;;;43.45;16.52;;;;;;;1.22;66.19;100050.59;5111000;27;20841;-65
2020/12/31 08:38:11;;;;;;;44.63;19.10;;;;;;;0.70;65.83;99976.97;5133444;27;20500;-62
2020/12/31 08:40:42;;;;;;;44.47;19.50;;;;;;;0.79;65.67;99989.78;5132269;27;20035;-56
2020/12/31 08:43:17;;;;;;;42.13;19.00;;;;;;;0.82;66.11;99986.19;5123225;27;20479;-54
2020/12/31 08:45:42;;;;;;;41.22;18.20;;;;;;;1.19;66.13;100037.50;5109390;27;20164;-62
2020/12/31 08:48:10;;;;;;;45.50;19.73;;;;;;;0.88;65.66;99991.22;5093910;28;20126;-61
2020/12/31 08:50:35;;;;;;;43.63;18.63;;;;;;;1.26;66.15;100041.66;5112381;28;20031;-62
2020/12/31 08:53:02;;;;;;;45.15;19.63;;;;;;;1.28;66.10;100031.91;5111966;28;20122;-56
2020/12/31 08:55:27;;;;;;;46.22;20.05;;;;;;;1.33;65.65;100034.38;5111971;28;20080;-48
2020/12/31 08:58:18;;;;;;;44.65;19.05;;;;;;;1.33;65.91;100044.91;5112244;28;20036;-59
2020/12/31 09:00:45;;;;;;;45.85;20.75;;;;;;;1.42;65.71;100054.22;5112385;28;20097;-60
2020/12/31 09:03:11;;;;;;;54.33;20.85;;;;;;;1.39;66.02;100054.34;5108848;28;20481;-54
2020/12/31 09:05:37;;;;;;;51.92;21.73;;;;;;;1.40;65.74;100072.78;5110430;28;20157;-56
2020/12/31 09:08:03;;;;;;;43.33;20.70;;;;;;;1.39;66.08;100047.31;5112878;27;20031;-62
2020/12/31 09:10:32;;;;;;;43.40;20.38;;;;;;;1.52;65.73;100036.25;5121768;27;20657;-62
2020/12/31 09:12:58;;;;;;;44.13;20.25;;;;;;;1.56;65.85;100051.03;5126508;27;20050;-60
2020/12/31 09:15:23;;;;;;;46.90;21.02;;;;;;;1.67;65.21;100059.41;5132091;27;20045;-62
2020/12/31 09:17:49;;;;;;;39.65;16.45;;;;;;;1.72;65.02;100070.63;5132468;27;20031;-64
2020/12/31 09:20:26;;;;;;;45.35;21.42;;;;;;;1.49;65.63;100037.25;5132029;27;20448;-66
2020/12/31 09:22:53;;;;;;;49.90;21.77;;;;;;;1.46;66.22;100039.16;5132069;27;20042;-62
2020/12/31 09:25:19;;;;;;;49.50;21.27;;;;;;;1.40;66.22;100014.72;5131588;27;20043;-72
2020/12/31 09:27:45;;;;;;;50.78;21.95;;;;;;;1.43;65.86;99998.78;5132426;27;20123;-71
2020/12/31 09:30:13;;;;;;;48.80;22.70;;;;;;;1.25;66.19;99989.81;5131856;27;20050;-68
2020/12/31 09:32:39;;;;;;;53.78;21.98;;;;;;;1.21;65.57;99948.66;5131590;27;20490;-65
2020/12/31 09:35:06;;;;;;;57.22;22.92;;;;;;;1.70;65.63;100021.47;5131589;27;20054;-59
2020/12/31 09:37:59;;;;;;;53.72;23.15;;;;;;;1.76;66.33;100044.97;5130627;27;20066;-53
2020/12/31 09:40:25;;;;;;;50.58;22.52;;;;;;;1.80;65.63;100032.50;5130858;27;20042;-51
2020/12/31 09:42:50;;;;;;;53.97;22.38;;;;;;;1.65;65.89;100007.59;5131757;27;20035;-58
2020/12/31 09:45:16;;;;;;;51.25;22.48;;;;;;;1.81;65.94;100035.09;5132010;27;20042;-57
2020/12/31 09:47:42;;;;;;;52.35;24.70;;;;;;;1.83;65.75;100027.97;5131487;27;20034;-59
2020/12/31 09:50:11;;;;;;;56.55;23.55;;;;;;;1.84;65.67;100013.84;5132090;27;20466;-58
2020/12/31 09:52:40;;;;;;;51.00;23.85;;;;;;;1.82;66.04;100004.28;5131693;27;20031;-58
2020/12/31 09:55:07;;;;;;;56.83;23.50;;;;;;;1.83;66.25;100043.81;5131685;27;20035;-58
2020/12/31 09:57:34;;;;;;;57.25;24.52;;;;;;;1.89;66.15;100044.47;5131808;27;20042;-61
2020/12/31 10:00:00;;;;;;;57.33;24.05;;;;;;;1.83;66.34;100035.88;5131147;27;20035;-61
2020/12/31 10:02:26;;;;;;;59.97;25.45;;;;;;;1.86;66.52;100004.06;5131119;27;20085;-58
2020/12/31 10:04:51;;;;;;;53.42;24.65;;;;;;;1.82;66.45;99985.81;5130854;27;20133;-58
2020/12/31 10:07:17;;;;;;;58.63;25.92;;;;;;;1.94;66.45;100034.59;5131192;27;20081;-58
2020/12/31 10:09:43;;;;;;;55.28;24.83;;;;;;;2.04;66.72;100020.06;5130742;27;20031;-61
2020/12/31 10:12:14;;;;;;;60.63;25.60;;;;;;;2.08;66.51;100034.88;5131042;27;20039;-62
2020/12/31 10:14:40;;;;;;;54.85;24.05;;;;;;;2.08;66.07;100039.31;5130960;27;20447;-61
2020/12/31 10:17:07;;;;;;;55.80;25.63;;;;;;;2.03;66.44;100023.63;5131002;27;20049;-59
2020/12/31 10:19:32;;;;;;;54.72;24.38;;;;;;;2.06;66.53;100010.31;5130693;27;20062;-60
2020/12/31 10:21:58;;;;;;;49.58;23.50;;;;;;;2.13;66.05;100008.25;5130827;27;20524;-61
2020/12/31 10:24:23;;;;;;;49.67;21.77;;;;;;;2.12;66.12;99977.50;5131068;27;20031;-60
2020/12/31 10:26:49;;;;;;;45.53;20.35;;;;;;;2.10;65.98;99966.13;5131005;27;20031;-59
2020/12/31 10:29:15;;;;;;;47.58;20.63;;;;;;;2.17;66.35;100011.63;5131310;27;20084;-70
2020/12/31 10:31:42;;;;;;;44.33;19.55;;;;;;;1.58;66.34;99923.41;5131131;27;20034;-62
2020/12/31 10:34:09;;;;;;;40.33;19.23;;;;;;;2.21;66.72;99990.28;5131041;27;20026;-64
2020/12/31 10:36:35;;;;;;;40.47;20.13;;;;;;;2.27;66.80;99952.19;5130866;27;20066;-59
2020/12/31 10:39:01;;;;;;;43.60;20.73;;;;;;;2.27;66.60;99966.25;5130486;27;20145;-62
2020/12/31 10:41:28;;;;;;;45.58;21.73;;;;;;;2.16;66.74;99973.78;5112240;27;20067;-64
2020/12/31 10:43:55;;;;;;;42.83;20.67;;;;;;;2.33;66.52;99988.06;5130563;27;20182;-62
2020/12/31 10:46:25;;;;;;;42.42;20.40;;;;;;;2.22;66.60;99970.03;5130029;27;20070;-60
2020/12/31 10:48:51;;;;;;;47.88;22.52;;;;;;;2.21;66.57;99976.25;5126298;27;20035;-61
2020/12/31 10:51:17;;;;;;;46.10;21.45;;;;;;;2.27;67.26;99994.47;5127056;27;20401;-53
2020/12/31 10:53:43;;;;;;;57.17;25.77;;;;;;;1.80;67.10;99903.13;5128536;28;20050;-62
2020/12/31 10:56:08;;;;;;;54.47;24.63;;;;;;;1.95;66.90;99918.31;5127733;28;20130;-60
2020/12/31 10:58:35;;;;;;;56.63;25.60;;;;;;;2.29;67.18;99982.91;5128605;28;20027;-62
2020/12/31 11:01:02;;;;;;;57.53;26.77;;;;;;;2.31;67.13;99959.03;5130191;27;20063;-62
2020/12/31 11:03:28;;;;;;;65.75;26.25;;;;;;;2.02;66.86;99916.28;5132321;27;20050;-63
2020/12/31 11:05:53;;;;;;;66.50;26.73;;;;;;;2.40;66.77;99985.06;5134971;27;20034;-62
2020/12/31 11:08:19;;;;;;;53.53;22.45;;;;;;;2.41;66.84;99988.56;5134888;27;20045;-61
2020/12/31 11:10:48;;;;;;;59.15;25.30;;;;;;;2.32;67.21;99987.19;5135105;27;20031;-63
2020/12/31 11:13:14;;;;;;;63.65;26.55;;;;;;;2.30;67.16;99996.97;5135130;27;20393;-63
2020/12/31 11:15:40;;;;;;;55.40;25.35;;;;;;;2.35;67.12;99997.63;5134786;27;20063;-62
2020/12/31 11:18:06;;;;;;;62.30;28.17;;;;;;;2.38;67.50;99978.97;5134215;27;20059;-63
2020/12/31 11:20:32;;;;;;;64.18;28.77;;;;;;;2.34;67.13;99979.19;5134182;27;20027;-64